sensor_id;sensor_type;location;lat;lon;timestamp;P1;durP1;ratioP1;P2;durP2;ratioP2
7919;SDS011;18778;47.610;9.776;2024-01-07T00:02:25;27.80;;;19.20;;
7919;SDS011;18778;47.610;9.776;2024-01-07T00:04:51;25.20;;;17.57;;
7919;SDS011;18778;47.610;9.776;2024-01-07T00:07:16;25.87;;;18.27;;
7919;SDS011;18778;47.610;9.776;2024-01-07T00:09:42;26.23;;;18.83;;
7919;SDS011;18778;47.610;9.776;2024-01-07T00:12:07;26.23;;;18.17;;
7919;SDS011;18778;47.610;9.776;2024-01-07T00:14:33;25.30;;;17.57;;
7919;SDS011;18778;47.610;9.776;2024-01-07T00:16:59;25.10;;;17.90;;
7919;SDS011;18778;47.610;9.776;2024-01-07T00:19:24;30.07;;;18.47;;
7919;SDS011;18778;47.610;9.776;2024-01-07T00:21:50;28.17;;;18.63;;
7919;SDS011;18778;47.610;9.776;2024-01-07T00:24:15;25.67;;;18.33;;
7919;SDS011;18778;47.610;9.776;2024-01-07T00:26:41;27.00;;;18.80;;
7919;SDS011;18778;47.610;9.776;2024-01-07T00:29:07;26.73;;;18.90;;
7919;SDS011;18778;47.610;9.776;2024-01-07T00:31:32;27.27;;;18.37;;
7919;SDS011;18778;47.610;9.776;2024-01-07T00:33:58;26.33;;;18.53;;
7919;SDS011;18778;47.610;9.776;2024-01-07T00:36:24;26.70;;;17.87;;
7919;SDS011;18778;47.610;9.776;2024-01-07T00:38:49;25.73;;;17.83;;
7919;SDS011;18778;47.610;9.776;2024-01-07T00:41:15;28.07;;;18.70;;
7919;SDS011;18778;47.610;9.776;2024-01-07T00:43:40;25.60;;;18.17;;
7919;SDS011;18778;47.610;9.776;2024-01-07T00:46:06;27.10;;;18.27;;
7919;SDS011;18778;47.610;9.776;2024-01-07T00:48:32;25.20;;;16.53;;
7919;SDS011;18778;47.610;9.776;2024-01-07T00:50:57;23.73;;;16.77;;
7919;SDS011;18778;47.610;9.776;2024-01-07T00:53:23;25.47;;;17.90;;
7919;SDS011;18778;47.610;9.776;2024-01-07T00:55:48;25.87;;;17.53;;
7919;SDS011;18778;47.610;9.776;2024-01-07T00:58:14;25.93;;;17.53;;
7919;SDS011;18778;47.610;9.776;2024-01-07T01:00:40;23.27;;;16.27;;
7919;SDS011;18778;47.610;9.776;2024-01-07T01:03:05;24.97;;;16.40;;
7919;SDS011;18778;47.610;9.776;2024-01-07T01:05:31;26.10;;;17.43;;
7919;SDS011;18778;47.610;9.776;2024-01-07T01:07:56;24.80;;;16.67;;
7919;SDS011;18778;47.610;9.776;2024-01-07T01:10:22;24.07;;;16.93;;
7919;SDS011;18778;47.610;9.776;2024-01-07T01:12:47;26.70;;;17.43;;
7919;SDS011;18778;47.610;9.776;2024-01-07T01:15:13;22.50;;;16.17;;
7919;SDS011;18778;47.610;9.776;2024-01-07T01:17:41;22.07;;;15.20;;
7919;SDS011;18778;47.610;9.776;2024-01-07T01:20:07;24.43;;;16.57;;
7919;SDS011;18778;47.610;9.776;2024-01-07T01:22:33;21.40;;;15.23;;
7919;SDS011;18778;47.610;9.776;2024-01-07T01:24:59;23.93;;;15.93;;
7919;SDS011;18778;47.610;9.776;2024-01-07T01:27:24;20.43;;;15.00;;
7919;SDS011;18778;47.610;9.776;2024-01-07T01:29:50;22.70;;;15.40;;
7919;SDS011;18778;47.610;9.776;2024-01-07T01:32:16;22.73;;;15.57;;
7919;SDS011;18778;47.610;9.776;2024-01-07T01:34:42;23.57;;;15.27;;
7919;SDS011;18778;47.610;9.776;2024-01-07T01:37:08;23.57;;;16.10;;
7919;SDS011;18778;47.610;9.776;2024-01-07T01:39:34;23.67;;;16.03;;
7919;SDS011;18778;47.610;9.776;2024-01-07T01:42:00;22.63;;;15.47;;
7919;SDS011;18778;47.610;9.776;2024-01-07T01:44:25;24.63;;;16.67;;
7919;SDS011;18778;47.610;9.776;2024-01-07T01:46:54;25.47;;;18.20;;
7919;SDS011;18778;47.610;9.776;2024-01-07T01:49:21;28.90;;;18.50;;
7919;SDS011;18778;47.610;9.776;2024-01-07T01:51:47;24.10;;;16.53;;
7919;SDS011;18778;47.610;9.776;2024-01-07T01:54:12;24.23;;;16.37;;
7919;SDS011;18778;47.610;9.776;2024-01-07T01:56:38;23.23;;;15.83;;
7919;SDS011;18778;47.610;9.776;2024-01-07T01:59:04;23.80;;;16.70;;
7919;SDS011;18778;47.610;9.776;2024-01-07T02:01:30;26.33;;;17.00;;
7919;SDS011;18778;47.610;9.776;2024-01-07T02:03:56;20.63;;;14.33;;
7919;SDS011;18778;47.610;9.776;2024-01-07T02:06:22;20.93;;;13.17;;
7919;SDS011;18778;47.610;9.776;2024-01-07T02:08:48;22.47;;;14.70;;
7919;SDS011;18778;47.610;9.776;2024-01-07T02:11:15;21.27;;;14.23;;
7919;SDS011;18778;47.610;9.776;2024-01-07T02:13:41;22.13;;;15.23;;
7919;SDS011;18778;47.610;9.776;2024-01-07T02:16:06;22.33;;;14.87;;
7919;SDS011;18778;47.610;9.776;2024-01-07T02:18:32;20.57;;;14.53;;
7919;SDS011;18778;47.610;9.776;2024-01-07T02:20:58;20.73;;;15.50;;
7919;SDS011;18778;47.610;9.776;2024-01-07T02:23:23;23.00;;;15.37;;
7919;SDS011;18778;47.610;9.776;2024-01-07T02:25:49;20.10;;;15.23;;
7919;SDS011;18778;47.610;9.776;2024-01-07T02:28:14;20.40;;;14.40;;
7919;SDS011;18778;47.610;9.776;2024-01-07T02:30:40;19.07;;;12.93;;
7919;SDS011;18778;47.610;9.776;2024-01-07T02:33:06;19.47;;;13.43;;
7919;SDS011;18778;47.610;9.776;2024-01-07T02:35:31;19.40;;;13.27;;
7919;SDS011;18778;47.610;9.776;2024-01-07T02:37:57;18.53;;;12.80;;
7919;SDS011;18778;47.610;9.776;2024-01-07T02:40:22;18.00;;;12.47;;
7919;SDS011;18778;47.610;9.776;2024-01-07T02:42:48;17.60;;;12.60;;
7919;SDS011;18778;47.610;9.776;2024-01-07T02:45:14;21.73;;;14.13;;
7919;SDS011;18778;47.610;9.776;2024-01-07T02:47:39;18.60;;;12.37;;
7919;SDS011;18778;47.610;9.776;2024-01-07T02:50:05;19.53;;;13.27;;
7919;SDS011;18778;47.610;9.776;2024-01-07T02:52:31;18.57;;;12.77;;
7919;SDS011;18778;47.610;9.776;2024-01-07T02:54:56;17.83;;;12.57;;
7919;SDS011;18778;47.610;9.776;2024-01-07T02:57:22;20.30;;;13.80;;
7919;SDS011;18778;47.610;9.776;2024-01-07T02:59:48;23.10;;;14.30;;
7919;SDS011;18778;47.610;9.776;2024-01-07T03:02:13;23.07;;;15.50;;
7919;SDS011;18778;47.610;9.776;2024-01-07T03:04:39;21.60;;;14.27;;
7919;SDS011;18778;47.610;9.776;2024-01-07T03:07:05;19.60;;;14.10;;
7919;SDS011;18778;47.610;9.776;2024-01-07T03:09:30;20.93;;;13.80;;
7919;SDS011;18778;47.610;9.776;2024-01-07T03:11:56;21.60;;;14.37;;
7919;SDS011;18778;47.610;9.776;2024-01-07T03:14:21;18.77;;;13.87;;
7919;SDS011;18778;47.610;9.776;2024-01-07T03:16:48;22.67;;;14.53;;
7919;SDS011;18778;47.610;9.776;2024-01-07T03:19:13;19.50;;;13.73;;
7919;SDS011;18778;47.610;9.776;2024-01-07T03:21:39;21.23;;;15.17;;
7919;SDS011;18778;47.610;9.776;2024-01-07T03:24:05;20.30;;;13.83;;
7919;SDS011;18778;47.610;9.776;2024-01-07T03:26:30;20.17;;;13.70;;
7919;SDS011;18778;47.610;9.776;2024-01-07T03:28:57;19.53;;;14.50;;
7919;SDS011;18778;47.610;9.776;2024-01-07T03:31:25;19.53;;;13.57;;
7919;SDS011;18778;47.610;9.776;2024-01-07T03:33:50;21.13;;;14.33;;
7919;SDS011;18778;47.610;9.776;2024-01-07T03:36:16;21.23;;;15.63;;
7919;SDS011;18778;47.610;9.776;2024-01-07T03:38:42;20.87;;;14.10;;
7919;SDS011;18778;47.610;9.776;2024-01-07T03:41:07;20.87;;;14.83;;
7919;SDS011;18778;47.610;9.776;2024-01-07T03:43:33;18.77;;;12.53;;
7919;SDS011;18778;47.610;9.776;2024-01-07T03:45:59;18.73;;;13.40;;
7919;SDS011;18778;47.610;9.776;2024-01-07T03:48:25;20.33;;;13.60;;
7919;SDS011;18778;47.610;9.776;2024-01-07T03:50:51;17.50;;;12.60;;
7919;SDS011;18778;47.610;9.776;2024-01-07T03:53:17;20.53;;;13.53;;
7919;SDS011;18778;47.610;9.776;2024-01-07T03:55:42;22.10;;;12.87;;
7919;SDS011;18778;47.610;9.776;2024-01-07T03:58:08;19.23;;;13.17;;
7919;SDS011;18778;47.610;9.776;2024-01-07T04:00:34;23.97;;;13.93;;
7919;SDS011;18778;47.610;9.776;2024-01-07T04:03:00;20.13;;;13.07;;
7919;SDS011;18778;47.610;9.776;2024-01-07T04:05:26;20.47;;;13.10;;
7919;SDS011;18778;47.610;9.776;2024-01-07T04:07:52;20.97;;;13.80;;
7919;SDS011;18778;47.610;9.776;2024-01-07T04:10:17;20.03;;;13.70;;
7919;SDS011;18778;47.610;9.776;2024-01-07T04:12:44;19.37;;;13.33;;
7919;SDS011;18778;47.610;9.776;2024-01-07T04:15:10;17.87;;;12.53;;
7919;SDS011;18778;47.610;9.776;2024-01-07T04:17:36;19.00;;;13.10;;
7919;SDS011;18778;47.610;9.776;2024-01-07T04:20:02;19.20;;;13.10;;
7919;SDS011;18778;47.610;9.776;2024-01-07T04:22:28;21.67;;;13.67;;
7919;SDS011;18778;47.610;9.776;2024-01-07T04:24:54;17.10;;;12.30;;
7919;SDS011;18778;47.610;9.776;2024-01-07T04:27:20;18.83;;;13.13;;
7919;SDS011;18778;47.610;9.776;2024-01-07T04:29:45;18.43;;;12.80;;
7919;SDS011;18778;47.610;9.776;2024-01-07T04:32:11;19.97;;;13.60;;
7919;SDS011;18778;47.610;9.776;2024-01-07T04:34:36;21.83;;;15.07;;
7919;SDS011;18778;47.610;9.776;2024-01-07T04:37:02;23.63;;;15.40;;
7919;SDS011;18778;47.610;9.776;2024-01-07T04:39:28;20.23;;;12.90;;
7919;SDS011;18778;47.610;9.776;2024-01-07T04:41:53;21.87;;;14.00;;
7919;SDS011;18778;47.610;9.776;2024-01-07T04:44:19;22.63;;;15.43;;
7919;SDS011;18778;47.610;9.776;2024-01-07T04:46:44;22.60;;;15.10;;
7919;SDS011;18778;47.610;9.776;2024-01-07T04:49:10;19.67;;;13.27;;
7919;SDS011;18778;47.610;9.776;2024-01-07T04:51:36;19.90;;;12.83;;
7919;SDS011;18778;47.610;9.776;2024-01-07T04:54:01;19.53;;;12.60;;
7919;SDS011;18778;47.610;9.776;2024-01-07T04:56:27;17.63;;;12.13;;
7919;SDS011;18778;47.610;9.776;2024-01-07T04:58:53;19.33;;;13.13;;
7919;SDS011;18778;47.610;9.776;2024-01-07T05:01:18;19.37;;;12.00;;
7919;SDS011;18778;47.610;9.776;2024-01-07T05:03:44;18.40;;;11.80;;
7919;SDS011;18778;47.610;9.776;2024-01-07T05:06:09;21.23;;;13.20;;
7919;SDS011;18778;47.610;9.776;2024-01-07T05:08:35;19.73;;;13.33;;
7919;SDS011;18778;47.610;9.776;2024-01-07T05:11:02;22.90;;;13.87;;
7919;SDS011;18778;47.610;9.776;2024-01-07T05:13:28;19.90;;;13.83;;
7919;SDS011;18778;47.610;9.776;2024-01-07T05:15:54;22.60;;;14.10;;
7919;SDS011;18778;47.610;9.776;2024-01-07T05:18:23;20.73;;;13.63;;
7919;SDS011;18778;47.610;9.776;2024-01-07T05:20:49;20.37;;;13.43;;
7919;SDS011;18778;47.610;9.776;2024-01-07T05:23:15;23.03;;;15.10;;
7919;SDS011;18778;47.610;9.776;2024-01-07T05:25:44;21.80;;;13.83;;
7919;SDS011;18778;47.610;9.776;2024-01-07T05:28:12;21.13;;;13.87;;
7919;SDS011;18778;47.610;9.776;2024-01-07T05:30:39;22.73;;;14.07;;
7919;SDS011;18778;47.610;9.776;2024-01-07T05:33:05;18.93;;;12.60;;
7919;SDS011;18778;47.610;9.776;2024-01-07T05:35:30;24.70;;;13.83;;
7919;SDS011;18778;47.610;9.776;2024-01-07T05:37:56;22.40;;;14.47;;
7919;SDS011;18778;47.610;9.776;2024-01-07T05:40:22;26.80;;;15.87;;
7919;SDS011;18778;47.610;9.776;2024-01-07T05:42:48;24.03;;;15.60;;
7919;SDS011;18778;47.610;9.776;2024-01-07T05:45:13;24.33;;;14.57;;
7919;SDS011;18778;47.610;9.776;2024-01-07T05:47:39;20.60;;;13.27;;
7919;SDS011;18778;47.610;9.776;2024-01-07T05:50:05;22.47;;;13.10;;
7919;SDS011;18778;47.610;9.776;2024-01-07T05:52:32;21.10;;;13.87;;
7919;SDS011;18778;47.610;9.776;2024-01-07T05:54:57;20.20;;;13.50;;
7919;SDS011;18778;47.610;9.776;2024-01-07T05:57:23;17.53;;;11.90;;
7919;SDS011;18778;47.610;9.776;2024-01-07T05:59:49;20.33;;;12.70;;
7919;SDS011;18778;47.610;9.776;2024-01-07T06:02:15;21.00;;;13.13;;
7919;SDS011;18778;47.610;9.776;2024-01-07T06:04:42;19.60;;;12.57;;
7919;SDS011;18778;47.610;9.776;2024-01-07T06:07:08;19.27;;;12.83;;
7919;SDS011;18778;47.610;9.776;2024-01-07T06:09:33;18.50;;;11.50;;
7919;SDS011;18778;47.610;9.776;2024-01-07T06:11:59;19.17;;;12.03;;
7919;SDS011;18778;47.610;9.776;2024-01-07T06:14:25;18.20;;;12.77;;
7919;SDS011;18778;47.610;9.776;2024-01-07T06:16:50;18.93;;;12.30;;
7919;SDS011;18778;47.610;9.776;2024-01-07T06:19:20;19.47;;;12.40;;
7919;SDS011;18778;47.610;9.776;2024-01-07T06:21:45;18.47;;;12.10;;
7919;SDS011;18778;47.610;9.776;2024-01-07T06:24:11;18.57;;;11.43;;
7919;SDS011;18778;47.610;9.776;2024-01-07T06:26:36;18.53;;;12.07;;
7919;SDS011;18778;47.610;9.776;2024-01-07T06:29:02;16.20;;;11.00;;
7919;SDS011;18778;47.610;9.776;2024-01-07T06:31:28;17.47;;;11.80;;
7919;SDS011;18778;47.610;9.776;2024-01-07T06:33:53;18.23;;;12.10;;
7919;SDS011;18778;47.610;9.776;2024-01-07T06:36:21;19.83;;;13.23;;
7919;SDS011;18778;47.610;9.776;2024-01-07T06:38:47;19.90;;;13.40;;
7919;SDS011;18778;47.610;9.776;2024-01-07T06:41:13;18.00;;;12.57;;
7919;SDS011;18778;47.610;9.776;2024-01-07T06:43:39;20.37;;;13.37;;
7919;SDS011;18778;47.610;9.776;2024-01-07T06:46:05;21.10;;;14.43;;
7919;SDS011;18778;47.610;9.776;2024-01-07T06:48:31;22.90;;;15.70;;
7919;SDS011;18778;47.610;9.776;2024-01-07T06:50:57;24.27;;;17.63;;
7919;SDS011;18778;47.610;9.776;2024-01-07T06:53:22;28.33;;;18.10;;
7919;SDS011;18778;47.610;9.776;2024-01-07T06:55:48;28.93;;;20.13;;
7919;SDS011;18778;47.610;9.776;2024-01-07T06:58:14;27.57;;;18.37;;
7919;SDS011;18778;47.610;9.776;2024-01-07T07:00:39;26.60;;;18.97;;
7919;SDS011;18778;47.610;9.776;2024-01-07T07:03:05;25.30;;;18.20;;
7919;SDS011;18778;47.610;9.776;2024-01-07T07:05:31;24.00;;;17.63;;
7919;SDS011;18778;47.610;9.776;2024-01-07T07:07:57;23.77;;;17.27;;
7919;SDS011;18778;47.610;9.776;2024-01-07T07:10:23;24.87;;;19.17;;
7919;SDS011;18778;47.610;9.776;2024-01-07T07:12:48;23.67;;;15.40;;
7919;SDS011;18778;47.610;9.776;2024-01-07T07:15:15;21.63;;;14.70;;
7919;SDS011;18778;47.610;9.776;2024-01-07T07:17:41;19.97;;;13.33;;
7919;SDS011;18778;47.610;9.776;2024-01-07T07:20:07;18.40;;;12.70;;
7919;SDS011;18778;47.610;9.776;2024-01-07T07:22:33;17.83;;;12.53;;
7919;SDS011;18778;47.610;9.776;2024-01-07T07:24:59;20.87;;;12.27;;
7919;SDS011;18778;47.610;9.776;2024-01-07T07:27:24;18.40;;;11.97;;
7919;SDS011;18778;47.610;9.776;2024-01-07T07:29:50;19.30;;;12.50;;
7919;SDS011;18778;47.610;9.776;2024-01-07T07:32:16;16.17;;;11.50;;
7919;SDS011;18778;47.610;9.776;2024-01-07T07:34:41;16.90;;;11.77;;
7919;SDS011;18778;47.610;9.776;2024-01-07T07:37:07;18.77;;;12.87;;
7919;SDS011;18778;47.610;9.776;2024-01-07T07:39:32;19.07;;;12.63;;
7919;SDS011;18778;47.610;9.776;2024-01-07T07:41:59;22.13;;;15.23;;
7919;SDS011;18778;47.610;9.776;2024-01-07T07:44:25;20.40;;;13.67;;
7919;SDS011;18778;47.610;9.776;2024-01-07T07:46:50;22.40;;;15.63;;
7919;SDS011;18778;47.610;9.776;2024-01-07T07:49:16;20.13;;;13.70;;
7919;SDS011;18778;47.610;9.776;2024-01-07T07:51:42;20.57;;;14.60;;
7919;SDS011;18778;47.610;9.776;2024-01-07T07:54:08;17.77;;;12.73;;
7919;SDS011;18778;47.610;9.776;2024-01-07T07:56:34;17.83;;;12.67;;
7919;SDS011;18778;47.610;9.776;2024-01-07T07:59:01;21.50;;;14.00;;
7919;SDS011;18778;47.610;9.776;2024-01-07T08:01:27;18.40;;;12.17;;
7919;SDS011;18778;47.610;9.776;2024-01-07T08:03:52;19.97;;;13.70;;
7919;SDS011;18778;47.610;9.776;2024-01-07T08:06:18;20.53;;;13.70;;
7919;SDS011;18778;47.610;9.776;2024-01-07T08:08:44;20.57;;;13.43;;
7919;SDS011;18778;47.610;9.776;2024-01-07T08:11:10;20.87;;;14.77;;
7919;SDS011;18778;47.610;9.776;2024-01-07T08:13:35;25.87;;;15.40;;
7919;SDS011;18778;47.610;9.776;2024-01-07T08:16:02;26.70;;;17.30;;
7919;SDS011;18778;47.610;9.776;2024-01-07T08:18:28;33.50;;;18.67;;
7919;SDS011;18778;47.610;9.776;2024-01-07T08:20:54;25.63;;;16.13;;
7919;SDS011;18778;47.610;9.776;2024-01-07T08:23:19;24.80;;;16.00;;
7919;SDS011;18778;47.610;9.776;2024-01-07T08:25:45;28.97;;;19.70;;
7919;SDS011;18778;47.610;9.776;2024-01-07T08:28:11;26.97;;;17.77;;
7919;SDS011;18778;47.610;9.776;2024-01-07T08:30:37;19.47;;;13.93;;
7919;SDS011;18778;47.610;9.776;2024-01-07T08:33:02;21.27;;;14.97;;
7919;SDS011;18778;47.610;9.776;2024-01-07T08:35:28;18.13;;;12.13;;
7919;SDS011;18778;47.610;9.776;2024-01-07T08:37:54;18.13;;;12.00;;
7919;SDS011;18778;47.610;9.776;2024-01-07T08:40:19;15.73;;;11.43;;
7919;SDS011;18778;47.610;9.776;2024-01-07T08:42:45;13.33;;;10.00;;
7919;SDS011;18778;47.610;9.776;2024-01-07T08:45:11;16.17;;;12.03;;
7919;SDS011;18778;47.610;9.776;2024-01-07T08:47:37;14.83;;;10.77;;
7919;SDS011;18778;47.610;9.776;2024-01-07T08:50:05;19.57;;;13.27;;
7919;SDS011;18778;47.610;9.776;2024-01-07T08:52:30;23.77;;;15.53;;
7919;SDS011;18778;47.610;9.776;2024-01-07T08:54:56;26.07;;;17.63;;
7919;SDS011;18778;47.610;9.776;2024-01-07T08:57:21;28.40;;;17.70;;
7919;SDS011;18778;47.610;9.776;2024-01-07T08:59:47;21.03;;;14.73;;
7919;SDS011;18778;47.610;9.776;2024-01-07T09:02:13;19.50;;;13.63;;
7919;SDS011;18778;47.610;9.776;2024-01-07T09:04:39;14.97;;;11.20;;
7919;SDS011;18778;47.610;9.776;2024-01-07T09:07:04;15.23;;;11.47;;
7919;SDS011;18778;47.610;9.776;2024-01-07T09:09:30;13.17;;;10.23;;
7919;SDS011;18778;47.610;9.776;2024-01-07T09:11:55;12.93;;;10.60;;
7919;SDS011;18778;47.610;9.776;2024-01-07T09:14:22;12.37;;;9.63;;
7919;SDS011;18778;47.610;9.776;2024-01-07T09:16:50;13.10;;;10.07;;
7919;SDS011;18778;47.610;9.776;2024-01-07T09:19:15;14.07;;;10.30;;
7919;SDS011;18778;47.610;9.776;2024-01-07T09:21:42;13.53;;;10.50;;
7919;SDS011;18778;47.610;9.776;2024-01-07T09:24:08;13.43;;;10.03;;
7919;SDS011;18778;47.610;9.776;2024-01-07T09:26:34;14.97;;;11.77;;
7919;SDS011;18778;47.610;9.776;2024-01-07T09:29:00;13.63;;;10.67;;
7919;SDS011;18778;47.610;9.776;2024-01-07T09:31:26;9.97;;;8.77;;
7919;SDS011;18778;47.610;9.776;2024-01-07T09:33:52;10.83;;;9.17;;
7919;SDS011;18778;47.610;9.776;2024-01-07T09:36:17;11.83;;;9.40;;
7919;SDS011;18778;47.610;9.776;2024-01-07T09:38:43;11.23;;;8.83;;
7919;SDS011;18778;47.610;9.776;2024-01-07T09:41:09;10.43;;;8.63;;
7919;SDS011;18778;47.610;9.776;2024-01-07T09:43:35;10.10;;;8.90;;
7919;SDS011;18778;47.610;9.776;2024-01-07T09:46:01;10.30;;;8.47;;
7919;SDS011;18778;47.610;9.776;2024-01-07T09:48:28;11.43;;;8.53;;
7919;SDS011;18778;47.610;9.776;2024-01-07T09:50:54;12.27;;;9.30;;
7919;SDS011;18778;47.610;9.776;2024-01-07T09:53:25;12.53;;;9.07;;
7919;SDS011;18778;47.610;9.776;2024-01-07T09:56:04;11.10;;;9.00;;
7919;SDS011;18778;47.610;9.776;2024-01-07T09:58:43;10.33;;;8.97;;
7919;SDS011;18778;47.610;9.776;2024-01-07T10:01:10;12.73;;;10.27;;
7919;SDS011;18778;47.610;9.776;2024-01-07T10:03:36;11.70;;;9.30;;
7919;SDS011;18778;47.610;9.776;2024-01-07T10:06:02;13.60;;;9.83;;
7919;SDS011;18778;47.610;9.776;2024-01-07T10:08:28;12.10;;;10.17;;
7919;SDS011;18778;47.610;9.776;2024-01-07T10:10:53;11.83;;;9.80;;
7919;SDS011;18778;47.610;9.776;2024-01-07T10:13:22;12.33;;;10.53;;
7919;SDS011;18778;47.610;9.776;2024-01-07T10:15:48;13.10;;;10.97;;
7919;SDS011;18778;47.610;9.776;2024-01-07T10:18:13;12.60;;;10.47;;
7919;SDS011;18778;47.610;9.776;2024-01-07T10:20:39;12.53;;;9.80;;
7919;SDS011;18778;47.610;9.776;2024-01-07T10:23:05;13.17;;;10.43;;
7919;SDS011;18778;47.610;9.776;2024-01-07T10:25:32;11.73;;;9.23;;
7919;SDS011;18778;47.610;9.776;2024-01-07T10:28:00;11.93;;;9.33;;
7919;SDS011;18778;47.610;9.776;2024-01-07T10:30:27;12.37;;;9.83;;
7919;SDS011;18778;47.610;9.776;2024-01-07T10:32:59;11.60;;;9.40;;
7919;SDS011;18778;47.610;9.776;2024-01-07T10:35:30;13.87;;;10.60;;
7919;SDS011;18778;47.610;9.776;2024-01-07T10:37:58;14.77;;;10.93;;
7919;SDS011;18778;47.610;9.776;2024-01-07T10:40:26;12.73;;;10.30;;
7919;SDS011;18778;47.610;9.776;2024-01-07T10:42:54;14.57;;;10.33;;
7919;SDS011;18778;47.610;9.776;2024-01-07T10:45:21;11.87;;;9.50;;
7919;SDS011;18778;47.610;9.776;2024-01-07T10:47:50;10.93;;;9.77;;
7919;SDS011;18778;47.610;9.776;2024-01-07T10:50:19;10.37;;;8.67;;
7919;SDS011;18778;47.610;9.776;2024-01-07T10:52:48;11.13;;;9.57;;
7919;SDS011;18778;47.610;9.776;2024-01-07T10:55:18;9.93;;;8.43;;
7919;SDS011;18778;47.610;9.776;2024-01-07T10:57:47;10.47;;;8.80;;
7919;SDS011;18778;47.610;9.776;2024-01-07T11:00:15;10.43;;;8.90;;
7919;SDS011;18778;47.610;9.776;2024-01-07T11:08:26;12.63;;;10.10;;
7919;SDS011;18778;47.610;9.776;2024-01-07T11:11:02;11.30;;;9.50;;
7919;SDS011;18778;47.610;9.776;2024-01-07T11:13:34;11.37;;;9.27;;
7919;SDS011;18778;47.610;9.776;2024-01-07T11:16:03;11.03;;;9.43;;
7919;SDS011;18778;47.610;9.776;2024-01-07T11:18:47;10.53;;;9.17;;
7919;SDS011;18778;47.610;9.776;2024-01-07T11:21:22;10.20;;;9.10;;
7919;SDS011;18778;47.610;9.776;2024-01-07T11:23:49;12.20;;;9.60;;
7919;SDS011;18778;47.610;9.776;2024-01-07T11:26:17;9.43;;;8.50;;
7919;SDS011;18778;47.610;9.776;2024-01-07T11:28:44;9.83;;;8.37;;
7919;SDS011;18778;47.610;9.776;2024-01-07T11:31:09;10.47;;;9.37;;
7919;SDS011;18778;47.610;9.776;2024-01-07T11:33:38;11.10;;;9.33;;
7919;SDS011;18778;47.610;9.776;2024-01-07T11:36:04;14.83;;;10.90;;
7919;SDS011;18778;47.610;9.776;2024-01-07T11:38:30;10.53;;;8.57;;
7919;SDS011;18778;47.610;9.776;2024-01-07T11:40:56;9.33;;;8.30;;
7919;SDS011;18778;47.610;9.776;2024-01-07T11:43:22;9.90;;;8.20;;
7919;SDS011;18778;47.610;9.776;2024-01-07T11:45:51;9.47;;;8.13;;
7919;SDS011;18778;47.610;9.776;2024-01-07T11:48:18;9.43;;;8.33;;
7919;SDS011;18778;47.610;9.776;2024-01-07T11:50:43;10.97;;;8.13;;
7919;SDS011;18778;47.610;9.776;2024-01-07T11:53:11;10.43;;;7.87;;
7919;SDS011;18778;47.610;9.776;2024-01-07T11:55:37;10.13;;;8.10;;
7919;SDS011;18778;47.610;9.776;2024-01-07T11:58:03;10.13;;;7.73;;
7919;SDS011;18778;47.610;9.776;2024-01-07T12:00:32;10.90;;;7.37;;
7919;SDS011;18778;47.610;9.776;2024-01-07T12:02:59;10.17;;;7.27;;
7919;SDS011;18778;47.610;9.776;2024-01-07T12:05:26;8.47;;;7.33;;
7919;SDS011;18778;47.610;9.776;2024-01-07T12:07:52;7.93;;;6.73;;
7919;SDS011;18778;47.610;9.776;2024-01-07T12:10:17;7.43;;;6.40;;
7919;SDS011;18778;47.610;9.776;2024-01-07T12:12:43;6.97;;;6.23;;
7919;SDS011;18778;47.610;9.776;2024-01-07T12:15:09;6.37;;;5.77;;
7919;SDS011;18778;47.610;9.776;2024-01-07T12:17:39;7.87;;;6.40;;
7919;SDS011;18778;47.610;9.776;2024-01-07T12:20:05;6.93;;;6.23;;
7919;SDS011;18778;47.610;9.776;2024-01-07T12:22:32;7.63;;;6.57;;
7919;SDS011;18778;47.610;9.776;2024-01-07T12:25:07;8.10;;;6.63;;
7919;SDS011;18778;47.610;9.776;2024-01-07T12:27:33;9.43;;;6.67;;
7919;SDS011;18778;47.610;9.776;2024-01-07T12:30:00;7.17;;;5.93;;
7919;SDS011;18778;47.610;9.776;2024-01-07T12:32:27;6.40;;;5.43;;
7919;SDS011;18778;47.610;9.776;2024-01-07T12:34:53;5.80;;;5.10;;
7919;SDS011;18778;47.610;9.776;2024-01-07T12:37:18;7.07;;;6.00;;
7919;SDS011;18778;47.610;9.776;2024-01-07T12:39:44;7.00;;;6.30;;
7919;SDS011;18778;47.610;9.776;2024-01-07T12:42:09;5.73;;;4.93;;
7919;SDS011;18778;47.610;9.776;2024-01-07T12:44:38;5.23;;;4.73;;
7919;SDS011;18778;47.610;9.776;2024-01-07T12:47:04;7.23;;;5.50;;
7919;SDS011;18778;47.610;9.776;2024-01-07T12:49:29;6.63;;;5.60;;
7919;SDS011;18778;47.610;9.776;2024-01-07T12:51:55;5.97;;;5.17;;
7919;SDS011;18778;47.610;9.776;2024-01-07T12:54:20;5.97;;;5.37;;
7919;SDS011;18778;47.610;9.776;2024-01-07T12:56:48;8.60;;;5.80;;
7919;SDS011;18778;47.610;9.776;2024-01-07T12:59:13;7.27;;;6.43;;
7919;SDS011;18778;47.610;9.776;2024-01-07T13:01:39;6.93;;;5.50;;
7919;SDS011;18778;47.610;9.776;2024-01-07T13:04:05;6.70;;;5.90;;
7919;SDS011;18778;47.610;9.776;2024-01-07T13:06:30;6.93;;;5.73;;
7919;SDS011;18778;47.610;9.776;2024-01-07T13:08:56;9.50;;;6.50;;
7919;SDS011;18778;47.610;9.776;2024-01-07T13:11:21;6.87;;;6.17;;
7919;SDS011;18778;47.610;9.776;2024-01-07T13:13:47;6.73;;;5.87;;
7919;SDS011;18778;47.610;9.776;2024-01-07T13:16:13;5.50;;;4.97;;
7919;SDS011;18778;47.610;9.776;2024-01-07T13:18:38;5.70;;;5.03;;
7919;SDS011;18778;47.610;9.776;2024-01-07T13:21:04;6.87;;;5.50;;
7919;SDS011;18778;47.610;9.776;2024-01-07T13:23:31;6.40;;;5.40;;
7919;SDS011;18778;47.610;9.776;2024-01-07T13:25:57;5.50;;;5.00;;
7919;SDS011;18778;47.610;9.776;2024-01-07T13:28:23;5.77;;;5.13;;
7919;SDS011;18778;47.610;9.776;2024-01-07T13:30:49;6.10;;;5.50;;
7919;SDS011;18778;47.610;9.776;2024-01-07T13:33:14;6.47;;;5.67;;
7919;SDS011;18778;47.610;9.776;2024-01-07T13:35:42;6.00;;;5.40;;
7919;SDS011;18778;47.610;9.776;2024-01-07T13:38:08;5.73;;;4.67;;
7919;SDS011;18778;47.610;9.776;2024-01-07T13:40:34;5.90;;;5.30;;
7919;SDS011;18778;47.610;9.776;2024-01-07T13:43:00;6.80;;;5.70;;
7919;SDS011;18778;47.610;9.776;2024-01-07T13:45:26;6.23;;;5.10;;
7919;SDS011;18778;47.610;9.776;2024-01-07T13:47:51;6.17;;;5.17;;
7919;SDS011;18778;47.610;9.776;2024-01-07T13:50:17;6.23;;;5.20;;
7919;SDS011;18778;47.610;9.776;2024-01-07T13:52:43;6.17;;;5.50;;
7919;SDS011;18778;47.610;9.776;2024-01-07T13:55:08;6.70;;;5.57;;
7919;SDS011;18778;47.610;9.776;2024-01-07T13:57:35;7.00;;;6.30;;
7919;SDS011;18778;47.610;9.776;2024-01-07T14:00:01;8.07;;;6.33;;
7919;SDS011;18778;47.610;9.776;2024-01-07T14:02:33;9.40;;;6.37;;
7919;SDS011;18778;47.610;9.776;2024-01-07T14:04:59;6.77;;;5.90;;
7919;SDS011;18778;47.610;9.776;2024-01-07T14:07:24;6.60;;;5.93;;
7919;SDS011;18778;47.610;9.776;2024-01-07T14:09:51;6.30;;;5.50;;
7919;SDS011;18778;47.610;9.776;2024-01-07T14:12:17;9.67;;;6.33;;
7919;SDS011;18778;47.610;9.776;2024-01-07T14:14:42;9.27;;;6.13;;
7919;SDS011;18778;47.610;9.776;2024-01-07T14:17:08;8.37;;;6.77;;
7919;SDS011;18778;47.610;9.776;2024-01-07T14:19:34;7.27;;;5.90;;
7919;SDS011;18778;47.610;9.776;2024-01-07T14:21:59;8.23;;;6.17;;
7919;SDS011;18778;47.610;9.776;2024-01-07T14:24:25;8.50;;;6.33;;
7919;SDS011;18778;47.610;9.776;2024-01-07T14:26:51;12.27;;;6.50;;
7919;SDS011;18778;47.610;9.776;2024-01-07T14:29:17;9.57;;;6.30;;
7919;SDS011;18778;47.610;9.776;2024-01-07T14:31:42;7.90;;;6.97;;
7919;SDS011;18778;47.610;9.776;2024-01-07T14:34:08;7.90;;;6.33;;
7919;SDS011;18778;47.610;9.776;2024-01-07T14:36:38;9.10;;;6.90;;
7919;SDS011;18778;47.610;9.776;2024-01-07T14:39:05;8.63;;;6.70;;
7919;SDS011;18778;47.610;9.776;2024-01-07T14:41:31;7.43;;;6.30;;